West Henrietta, NY

9:05 PM EDT on March 28, 2015 (GMT -0400)
Greater Rochester International | Change Station
CLOSE
Current Station
Airport
Location: Rochester,
Elevation: 554 ft
Nearby Weather Stations

Elev 554 ft 43.12 °N, 77.68 °W | Updated 11 minutes ago

Clear
Clear
25 °F
Feels Like 16 °F
N
8
Wind Variable Wind from West

Today
High -- | Low -- °F
--% Chance of Precip.
Yesterday
High -- | Low -- °F
Precip. -- in
7:00 AM 7:32 PM
Waxing Gibbous, 67% visible
Pressure 30.22 in
Visibility 10.0 miles
Clouds Clear
Windchill 16 °F
Dew Point 6 °F
Humidity 45%
Rainfall 0.02 in
Snow Depth Not available.
UV 0 out of 12
Pollen 1.40 out of 12
Air Quality Not available.
Flu Activity Widespread
METAR KROC 290054Z 28007KT 10SM CLR M04/M14 A3018 RMK AO2 SLP231 T10391144

More Conditions Fewer Conditions

Pressure 30.22 in
Visibility 10.0 miles
Clouds Clear
Windchill 16 °F
Dew Point 6 °F
Humidity 45%
Rainfall 0.02 in
Snow Depth Not available.
UV 0 out of 12
Pollen 1.40 out of 12
Air Quality Not available.
Flu Activity Widespread
METAR KROC 290054Z 28007KT 10SM CLR M04/M14 A3018 RMK AO2 SLP231 T10391144

More Conditions Fewer Conditions

10-Day Weather Forecast

Almanac

Astronomy

Mar. 28, 2015 Rise Set
Actual Time 7:00 AM EDT 7:32 PM EDT
Civil Twilight 6:31 AM EDT 8:00 PM EDT
Nautical Twilight 5:58 AM EDT 8:34 PM EDT
Astronomical Twilight 5:23 AM EDT 9:09 PM EDT
Moon 1:23 PM EDT (3/28) 3:11 AM EDT (3/28)
Length of Visible Light 13h 28m
Length of Day
12h 31m
Tomorrow will be 2m 56s longer.
Waxing Gibbous, 67% of the Moon is Illuminated
Today
Waxing Gibbous
Apr 4
Full
Apr 11
Last Quarter
Apr 18
New
Apr 25
First Quarter

Today's Extremes

State Highs State Lows

Community

WunderPhotos

Upload Photos

1,809,140 photos uploaded!

WunderBlogs® & News

Nearby

Air Quality

  Air Quality AQ Index Pollutant
Saturday Good
PM2.5
Sunday Good
PM2.5
Monday Good
PM2.5

Snow Depth

Station Depth Elevation
No new snow has been reported.

Earthquake Activity

City Distance Mag. Time & Date
No recent earthquake activity has been reported nearby.
Minimum magnitude displayed is 2.5.

Coastal Water Temperatures

Place Temperature
Buffalo, NY 33.1 °F
Alexandria Bay, NY 33.1 °F

Nearby Weather Stations